sensor_id;sensor_type;location;lat;lon;timestamp;P1;durP1;ratioP1;P2;durP2;ratioP2
69750;SDS011;57335;52.288;6.056;2022-11-18T00:01:08;8.88;;;3.40;;
69750;SDS011;57335;52.288;6.056;2022-11-18T00:03:37;9.05;;;3.50;;
69750;SDS011;57335;52.288;6.056;2022-11-18T00:06:04;8.68;;;3.10;;
69750;SDS011;57335;52.288;6.056;2022-11-18T00:08:32;9.02;;;3.20;;
69750;SDS011;57335;52.288;6.056;2022-11-18T00:11:09;8.80;;;2.72;;
69750;SDS011;57335;52.288;6.056;2022-11-18T00:16:05;9.20;;;3.05;;
69750;SDS011;57335;52.288;6.056;2022-11-18T00:18:33;9.57;;;3.20;;
69750;SDS011;57335;52.288;6.056;2022-11-18T00:21:03;9.05;;;3.50;;
69750;SDS011;57335;52.288;6.056;2022-11-18T00:23:34;8.35;;;3.00;;
69750;SDS011;57335;52.288;6.056;2022-11-18T00:26:02;11.00;;;3.17;;
69750;SDS011;57335;52.288;6.056;2022-11-18T00:28:30;10.85;;;3.60;;
69750;SDS011;57335;52.288;6.056;2022-11-18T00:31:01;9.57;;;3.22;;
69750;SDS011;57335;52.288;6.056;2022-11-18T00:33:28;9.75;;;3.28;;
69750;SDS011;57335;52.288;6.056;2022-11-18T00:35:54;10.50;;;2.90;;
69750;SDS011;57335;52.288;6.056;2022-11-18T00:38:21;9.52;;;3.42;;
69750;SDS011;57335;52.288;6.056;2022-11-18T00:40:47;10.55;;;3.10;;
69750;SDS011;57335;52.288;6.056;2022-11-18T00:43:14;7.13;;;2.70;;
69750;SDS011;57335;52.288;6.056;2022-11-18T00:48:07;8.57;;;2.97;;
69750;SDS011;57335;52.288;6.056;2022-11-18T00:50:34;10.73;;;3.30;;
69750;SDS011;57335;52.288;6.056;2022-11-18T00:53:00;9.82;;;3.47;;
69750;SDS011;57335;52.288;6.056;2022-11-18T00:55:26;9.38;;;3.65;;
69750;SDS011;57335;52.288;6.056;2022-11-18T00:57:53;10.63;;;3.50;;
69750;SDS011;57335;52.288;6.056;2022-11-18T01:02:45;10.15;;;3.30;;
69750;SDS011;57335;52.288;6.056;2022-11-18T01:07:38;10.55;;;3.50;;
69750;SDS011;57335;52.288;6.056;2022-11-18T01:10:04;9.38;;;3.63;;
69750;SDS011;57335;52.288;6.056;2022-11-18T01:12:31;8.68;;;3.25;;
69750;SDS011;57335;52.288;6.056;2022-11-18T01:14:57;8.95;;;3.58;;
69750;SDS011;57335;52.288;6.056;2022-11-18T01:17:24;9.85;;;3.63;;
69750;SDS011;57335;52.288;6.056;2022-11-18T01:19:50;9.77;;;3.67;;
69750;SDS011;57335;52.288;6.056;2022-11-18T01:24:43;11.40;;;3.97;;
69750;SDS011;57335;52.288;6.056;2022-11-18T01:27:09;10.27;;;3.75;;
69750;SDS011;57335;52.288;6.056;2022-11-18T01:29:36;12.75;;;4.38;;
69750;SDS011;57335;52.288;6.056;2022-11-18T01:34:48;10.13;;;3.65;;
69750;SDS011;57335;52.288;6.056;2022-11-18T01:37:15;11.35;;;3.60;;
69750;SDS011;57335;52.288;6.056;2022-11-18T01:42:11;11.80;;;3.67;;
69750;SDS011;57335;52.288;6.056;2022-11-18T01:47:46;8.48;;;3.60;;
69750;SDS011;57335;52.288;6.056;2022-11-18T01:52:43;10.85;;;3.88;;
69750;SDS011;57335;52.288;6.056;2022-11-18T01:55:17;9.88;;;3.50;;
69750;SDS011;57335;52.288;6.056;2022-11-18T01:57:49;11.02;;;4.22;;
69750;SDS011;57335;52.288;6.056;2022-11-18T02:00:18;10.23;;;3.75;;
69750;SDS011;57335;52.288;6.056;2022-11-18T02:02:45;10.95;;;3.92;;
69750;SDS011;57335;52.288;6.056;2022-11-18T02:05:12;10.10;;;4.05;;
69750;SDS011;57335;52.288;6.056;2022-11-18T02:07:40;10.73;;;3.80;;
69750;SDS011;57335;52.288;6.056;2022-11-18T02:10:09;11.68;;;4.30;;
69750;SDS011;57335;52.288;6.056;2022-11-18T02:12:43;11.48;;;4.10;;
69750;SDS011;57335;52.288;6.056;2022-11-18T02:15:10;10.73;;;3.83;;
69750;SDS011;57335;52.288;6.056;2022-11-18T02:17:43;10.85;;;4.28;;
69750;SDS011;57335;52.288;6.056;2022-11-18T02:20:36;8.50;;;3.60;;
69750;SDS011;57335;52.288;6.056;2022-11-18T02:28:34;12.60;;;4.15;;
69750;SDS011;57335;52.288;6.056;2022-11-18T02:31:19;11.75;;;3.90;;
69750;SDS011;57335;52.288;6.056;2022-11-18T02:34:11;13.93;;;4.40;;
69750;SDS011;57335;52.288;6.056;2022-11-18T02:36:52;11.10;;;4.30;;
69750;SDS011;57335;52.288;6.056;2022-11-18T02:39:26;11.93;;;4.10;;
69750;SDS011;57335;52.288;6.056;2022-11-18T02:42:00;10.23;;;4.55;;
69750;SDS011;57335;52.288;6.056;2022-11-18T02:44:30;12.02;;;4.13;;
69750;SDS011;57335;52.288;6.056;2022-11-18T02:46:59;11.75;;;4.60;;
69750;SDS011;57335;52.288;6.056;2022-11-18T02:49:36;12.45;;;4.47;;
69750;SDS011;57335;52.288;6.056;2022-11-18T02:52:06;11.70;;;4.50;;
69750;SDS011;57335;52.288;6.056;2022-11-18T02:54:36;10.52;;;4.25;;
69750;SDS011;57335;52.288;6.056;2022-11-18T02:57:09;14.00;;;4.68;;
69750;SDS011;57335;52.288;6.056;2022-11-18T02:59:36;12.52;;;4.30;;
69750;SDS011;57335;52.288;6.056;2022-11-18T03:02:02;10.88;;;4.28;;
69750;SDS011;57335;52.288;6.056;2022-11-18T03:04:29;10.77;;;3.97;;
69750;SDS011;57335;52.288;6.056;2022-11-18T03:07:05;9.93;;;4.15;;
69750;SDS011;57335;52.288;6.056;2022-11-18T03:09:38;12.75;;;4.95;;
69750;SDS011;57335;52.288;6.056;2022-11-18T03:17:53;12.73;;;4.22;;
69750;SDS011;57335;52.288;6.056;2022-11-18T03:23:19;13.10;;;4.22;;
69750;SDS011;57335;52.288;6.056;2022-11-18T03:28:26;9.85;;;3.63;;
69750;SDS011;57335;52.288;6.056;2022-11-18T03:33:31;9.40;;;4.20;;
69750;SDS011;57335;52.288;6.056;2022-11-18T03:36:02;9.55;;;3.97;;
69750;SDS011;57335;52.288;6.056;2022-11-18T03:38:33;13.13;;;4.18;;
69750;SDS011;57335;52.288;6.056;2022-11-18T03:41:04;11.70;;;4.10;;
69750;SDS011;57335;52.288;6.056;2022-11-18T03:43:35;10.82;;;4.03;;
69750;SDS011;57335;52.288;6.056;2022-11-18T03:46:12;11.63;;;4.30;;
69750;SDS011;57335;52.288;6.056;2022-11-18T03:48:51;11.82;;;4.22;;
69750;SDS011;57335;52.288;6.056;2022-11-18T03:51:25;11.02;;;3.85;;
69750;SDS011;57335;52.288;6.056;2022-11-18T03:53:59;10.60;;;3.63;;
69750;SDS011;57335;52.288;6.056;2022-11-18T03:56:29;11.45;;;4.50;;
69750;SDS011;57335;52.288;6.056;2022-11-18T03:59:02;13.45;;;4.20;;
69750;SDS011;57335;52.288;6.056;2022-11-18T04:01:34;12.68;;;4.15;;
69750;SDS011;57335;52.288;6.056;2022-11-18T04:04:06;10.20;;;4.00;;
69750;SDS011;57335;52.288;6.056;2022-11-18T04:06:35;10.32;;;4.03;;
69750;SDS011;57335;52.288;6.056;2022-11-18T04:09:25;12.95;;;4.30;;
69750;SDS011;57335;52.288;6.056;2022-11-18T04:11:59;13.27;;;3.75;;
69750;SDS011;57335;52.288;6.056;2022-11-18T04:14:36;12.15;;;4.30;;
69750;SDS011;57335;52.288;6.056;2022-11-18T04:17:05;9.75;;;4.50;;
69750;SDS011;57335;52.288;6.056;2022-11-18T04:19:34;10.30;;;4.25;;
69750;SDS011;57335;52.288;6.056;2022-11-18T04:22:01;13.35;;;4.03;;
69750;SDS011;57335;52.288;6.056;2022-11-18T04:24:28;11.02;;;4.22;;
69750;SDS011;57335;52.288;6.056;2022-11-18T04:26:54;10.13;;;3.80;;
69750;SDS011;57335;52.288;6.056;2022-11-18T04:29:20;10.57;;;3.92;;
69750;SDS011;57335;52.288;6.056;2022-11-18T04:31:47;8.68;;;3.72;;
69750;SDS011;57335;52.288;6.056;2022-11-18T04:34:13;11.30;;;4.43;;
69750;SDS011;57335;52.288;6.056;2022-11-18T04:36:40;12.45;;;4.70;;
69750;SDS011;57335;52.288;6.056;2022-11-18T04:39:06;9.60;;;4.07;;
69750;SDS011;57335;52.288;6.056;2022-11-18T04:41:33;10.77;;;3.83;;
69750;SDS011;57335;52.288;6.056;2022-11-18T04:43:59;12.27;;;4.68;;
69750;SDS011;57335;52.288;6.056;2022-11-18T04:46:25;12.68;;;4.15;;
69750;SDS011;57335;52.288;6.056;2022-11-18T04:48:52;9.52;;;3.92;;
69750;SDS011;57335;52.288;6.056;2022-11-18T04:51:18;11.60;;;3.85;;
69750;SDS011;57335;52.288;6.056;2022-11-18T04:53:44;9.05;;;3.50;;
69750;SDS011;57335;52.288;6.056;2022-11-18T04:56:11;11.30;;;4.18;;
69750;SDS011;57335;52.288;6.056;2022-11-18T04:58:37;10.63;;;3.78;;
69750;SDS011;57335;52.288;6.056;2022-11-18T05:01:03;12.07;;;3.90;;
69750;SDS011;57335;52.288;6.056;2022-11-18T05:03:30;10.52;;;4.13;;
69750;SDS011;57335;52.288;6.056;2022-11-18T05:05:59;11.25;;;4.32;;
69750;SDS011;57335;52.288;6.056;2022-11-18T05:08:26;11.27;;;4.32;;
69750;SDS011;57335;52.288;6.056;2022-11-18T05:10:53;14.35;;;4.43;;
69750;SDS011;57335;52.288;6.056;2022-11-18T05:13:19;11.07;;;4.60;;
69750;SDS011;57335;52.288;6.056;2022-11-18T05:15:45;13.02;;;3.97;;
69750;SDS011;57335;52.288;6.056;2022-11-18T05:18:12;13.88;;;4.13;;
69750;SDS011;57335;52.288;6.056;2022-11-18T05:20:38;12.07;;;4.78;;
69750;SDS011;57335;52.288;6.056;2022-11-18T05:23:07;11.85;;;4.45;;
69750;SDS011;57335;52.288;6.056;2022-11-18T05:25:34;12.00;;;4.75;;
69750;SDS011;57335;52.288;6.056;2022-11-18T05:28:00;12.27;;;4.45;;
69750;SDS011;57335;52.288;6.056;2022-11-18T05:30:27;11.73;;;4.25;;
69750;SDS011;57335;52.288;6.056;2022-11-18T05:32:53;11.95;;;4.75;;
69750;SDS011;57335;52.288;6.056;2022-11-18T05:35:19;11.18;;;4.50;;
69750;SDS011;57335;52.288;6.056;2022-11-18T05:37:46;13.45;;;4.57;;
69750;SDS011;57335;52.288;6.056;2022-11-18T05:40:12;11.75;;;4.20;;
69750;SDS011;57335;52.288;6.056;2022-11-18T05:42:38;13.63;;;4.47;;
69750;SDS011;57335;52.288;6.056;2022-11-18T05:45:05;14.10;;;4.78;;
69750;SDS011;57335;52.288;6.056;2022-11-18T05:47:31;14.77;;;4.75;;
69750;SDS011;57335;52.288;6.056;2022-11-18T05:49:58;12.18;;;4.78;;
69750;SDS011;57335;52.288;6.056;2022-11-18T05:52:24;11.75;;;4.68;;
69750;SDS011;57335;52.288;6.056;2022-11-18T05:54:50;12.50;;;5.03;;
69750;SDS011;57335;52.288;6.056;2022-11-18T05:57:17;13.40;;;4.55;;
69750;SDS011;57335;52.288;6.056;2022-11-18T05:59:43;15.38;;;5.10;;
69750;SDS011;57335;52.288;6.056;2022-11-18T06:02:11;13.70;;;4.75;;
69750;SDS011;57335;52.288;6.056;2022-11-18T06:04:43;11.20;;;5.00;;
69750;SDS011;57335;52.288;6.056;2022-11-18T06:09:44;14.10;;;5.22;;
69750;SDS011;57335;52.288;6.056;2022-11-18T06:12:16;15.02;;;4.82;;
69750;SDS011;57335;52.288;6.056;2022-11-18T06:14:48;14.00;;;5.45;;
69750;SDS011;57335;52.288;6.056;2022-11-18T06:17:18;13.50;;;5.18;;
69750;SDS011;57335;52.288;6.056;2022-11-18T06:19:48;13.07;;;5.00;;
69750;SDS011;57335;52.288;6.056;2022-11-18T06:22:15;15.20;;;5.45;;
69750;SDS011;57335;52.288;6.056;2022-11-18T06:24:41;13.90;;;5.05;;
69750;SDS011;57335;52.288;6.056;2022-11-18T06:27:08;15.15;;;5.07;;
69750;SDS011;57335;52.288;6.056;2022-11-18T06:29:35;13.90;;;5.22;;
69750;SDS011;57335;52.288;6.056;2022-11-18T06:32:02;14.80;;;5.13;;
69750;SDS011;57335;52.288;6.056;2022-11-18T06:34:28;17.58;;;5.45;;
69750;SDS011;57335;52.288;6.056;2022-11-18T06:36:54;13.93;;;5.47;;
69750;SDS011;57335;52.288;6.056;2022-11-18T06:39:21;12.45;;;5.50;;
69750;SDS011;57335;52.288;6.056;2022-11-18T06:41:47;14.57;;;4.90;;
69750;SDS011;57335;52.288;6.056;2022-11-18T06:44:13;14.73;;;5.45;;
69750;SDS011;57335;52.288;6.056;2022-11-18T06:46:40;14.77;;;5.82;;
69750;SDS011;57335;52.288;6.056;2022-11-18T06:49:06;12.10;;;5.30;;
69750;SDS011;57335;52.288;6.056;2022-11-18T06:51:33;16.95;;;5.72;;
69750;SDS011;57335;52.288;6.056;2022-11-18T06:53:59;13.60;;;4.90;;
69750;SDS011;57335;52.288;6.056;2022-11-18T06:56:29;14.77;;;5.25;;
69750;SDS011;57335;52.288;6.056;2022-11-18T06:58:57;14.20;;;5.25;;
69750;SDS011;57335;52.288;6.056;2022-11-18T07:01:25;14.18;;;5.40;;
69750;SDS011;57335;52.288;6.056;2022-11-18T07:03:52;13.27;;;4.88;;
69750;SDS011;57335;52.288;6.056;2022-11-18T07:06:20;13.38;;;5.88;;
69750;SDS011;57335;52.288;6.056;2022-11-18T07:08:48;15.88;;;5.25;;
69750;SDS011;57335;52.288;6.056;2022-11-18T07:11:17;15.48;;;5.85;;
69750;SDS011;57335;52.288;6.056;2022-11-18T07:13:45;14.02;;;5.38;;
69750;SDS011;57335;52.288;6.056;2022-11-18T07:16:13;14.30;;;5.55;;
69750;SDS011;57335;52.288;6.056;2022-11-18T07:18:45;13.52;;;5.40;;
69750;SDS011;57335;52.288;6.056;2022-11-18T07:21:17;14.38;;;5.78;;
69750;SDS011;57335;52.288;6.056;2022-11-18T07:23:45;16.10;;;5.93;;
69750;SDS011;57335;52.288;6.056;2022-11-18T07:26:13;15.48;;;6.00;;
69750;SDS011;57335;52.288;6.056;2022-11-18T07:28:39;15.90;;;5.53;;
69750;SDS011;57335;52.288;6.056;2022-11-18T07:31:10;13.30;;;5.20;;
69750;SDS011;57335;52.288;6.056;2022-11-18T07:33:41;14.38;;;6.00;;
69750;SDS011;57335;52.288;6.056;2022-11-18T07:36:18;13.38;;;6.07;;
69750;SDS011;57335;52.288;6.056;2022-11-18T07:38:47;14.43;;;5.38;;
69750;SDS011;57335;52.288;6.056;2022-11-18T07:41:21;13.75;;;4.95;;
69750;SDS011;57335;52.288;6.056;2022-11-18T07:43:49;15.77;;;5.30;;
69750;SDS011;57335;52.288;6.056;2022-11-18T07:46:23;14.43;;;5.82;;
69750;SDS011;57335;52.288;6.056;2022-11-18T07:48:52;14.35;;;5.30;;
69750;SDS011;57335;52.288;6.056;2022-11-18T07:51:31;13.27;;;5.28;;
69750;SDS011;57335;52.288;6.056;2022-11-18T07:53:59;12.48;;;5.53;;
69750;SDS011;57335;52.288;6.056;2022-11-18T07:56:26;14.15;;;5.10;;
69750;SDS011;57335;52.288;6.056;2022-11-18T07:58:53;13.70;;;5.53;;
69750;SDS011;57335;52.288;6.056;2022-11-18T08:01:24;13.90;;;5.38;;
69750;SDS011;57335;52.288;6.056;2022-11-18T08:03:51;14.75;;;5.57;;
69750;SDS011;57335;52.288;6.056;2022-11-18T08:06:18;12.48;;;5.75;;
69750;SDS011;57335;52.288;6.056;2022-11-18T08:08:44;16.17;;;5.85;;
69750;SDS011;57335;52.288;6.056;2022-11-18T08:11:12;14.32;;;5.50;;
69750;SDS011;57335;52.288;6.056;2022-11-18T08:13:47;11.57;;;5.22;;
69750;SDS011;57335;52.288;6.056;2022-11-18T08:16:14;14.60;;;4.97;;
69750;SDS011;57335;52.288;6.056;2022-11-18T08:18:42;15.13;;;5.53;;
69750;SDS011;57335;52.288;6.056;2022-11-18T08:21:09;13.73;;;5.65;;
69750;SDS011;57335;52.288;6.056;2022-11-18T08:23:36;16.02;;;6.07;;
69750;SDS011;57335;52.288;6.056;2022-11-18T08:26:11;13.13;;;5.45;;
69750;SDS011;57335;52.288;6.056;2022-11-18T08:28:39;13.82;;;5.30;;
69750;SDS011;57335;52.288;6.056;2022-11-18T08:31:10;14.93;;;5.38;;
69750;SDS011;57335;52.288;6.056;2022-11-18T08:33:38;12.70;;;5.03;;
69750;SDS011;57335;52.288;6.056;2022-11-18T08:38:46;12.95;;;5.43;;
69750;SDS011;57335;52.288;6.056;2022-11-18T08:41:13;13.60;;;5.20;;
69750;SDS011;57335;52.288;6.056;2022-11-18T08:43:42;13.95;;;5.47;;
69750;SDS011;57335;52.288;6.056;2022-11-18T08:46:09;12.38;;;5.07;;
69750;SDS011;57335;52.288;6.056;2022-11-18T08:48:35;12.35;;;4.90;;
69750;SDS011;57335;52.288;6.056;2022-11-18T08:51:02;13.65;;;5.50;;
69750;SDS011;57335;52.288;6.056;2022-11-18T08:53:29;14.63;;;5.55;;
69750;SDS011;57335;52.288;6.056;2022-11-18T08:55:57;12.68;;;5.78;;
69750;SDS011;57335;52.288;6.056;2022-11-18T08:58:24;16.23;;;5.65;;
69750;SDS011;57335;52.288;6.056;2022-11-18T09:00:51;11.68;;;5.13;;
69750;SDS011;57335;52.288;6.056;2022-11-18T09:03:18;14.10;;;5.57;;
69750;SDS011;57335;52.288;6.056;2022-11-18T09:05:45;11.35;;;5.15;;
69750;SDS011;57335;52.288;6.056;2022-11-18T09:08:11;11.73;;;5.28;;
69750;SDS011;57335;52.288;6.056;2022-11-18T09:10:40;14.88;;;5.32;;
69750;SDS011;57335;52.288;6.056;2022-11-18T09:13:06;12.75;;;5.00;;
69750;SDS011;57335;52.288;6.056;2022-11-18T09:15:52;11.85;;;4.78;;
69750;SDS011;57335;52.288;6.056;2022-11-18T09:18:19;13.70;;;4.95;;
69750;SDS011;57335;52.288;6.056;2022-11-18T09:20:55;11.63;;;4.78;;
69750;SDS011;57335;52.288;6.056;2022-11-18T09:23:22;12.90;;;4.93;;
69750;SDS011;57335;52.288;6.056;2022-11-18T09:25:56;12.88;;;5.63;;
69750;SDS011;57335;52.288;6.056;2022-11-18T09:28:28;11.35;;;5.18;;
69750;SDS011;57335;52.288;6.056;2022-11-18T09:30:55;12.43;;;4.93;;
69750;SDS011;57335;52.288;6.056;2022-11-18T09:33:21;11.95;;;5.30;;
69750;SDS011;57335;52.288;6.056;2022-11-18T09:35:48;11.52;;;5.28;;
69750;SDS011;57335;52.288;6.056;2022-11-18T09:38:15;14.00;;;5.30;;
69750;SDS011;57335;52.288;6.056;2022-11-18T09:46:07;11.95;;;5.28;;
69750;SDS011;57335;52.288;6.056;2022-11-18T09:48:57;11.55;;;4.97;;
69750;SDS011;57335;52.288;6.056;2022-11-18T09:51:28;13.65;;;5.18;;
69750;SDS011;57335;52.288;6.056;2022-11-18T09:54:06;13.93;;;5.47;;
69750;SDS011;57335;52.288;6.056;2022-11-18T09:56:35;13.45;;;5.78;;
69750;SDS011;57335;52.288;6.056;2022-11-18T09:59:02;12.13;;;5.38;;
69750;SDS011;57335;52.288;6.056;2022-11-18T10:01:29;12.30;;;5.50;;
69750;SDS011;57335;52.288;6.056;2022-11-18T10:03:56;12.65;;;5.50;;
69750;SDS011;57335;52.288;6.056;2022-11-18T10:06:25;11.90;;;5.57;;
69750;SDS011;57335;52.288;6.056;2022-11-18T10:09:02;14.30;;;5.78;;
69750;SDS011;57335;52.288;6.056;2022-11-18T10:11:53;10.95;;;4.90;;
69750;SDS011;57335;52.288;6.056;2022-11-18T10:14:36;12.00;;;5.15;;
69750;SDS011;57335;52.288;6.056;2022-11-18T10:20:01;11.02;;;5.63;;
69750;SDS011;57335;52.288;6.056;2022-11-18T10:22:42;12.30;;;5.10;;
69750;SDS011;57335;52.288;6.056;2022-11-18T10:25:19;10.20;;;4.80;;
69750;SDS011;57335;52.288;6.056;2022-11-18T10:27:47;11.48;;;5.30;;
69750;SDS011;57335;52.288;6.056;2022-11-18T10:30:16;14.25;;;5.43;;
69750;SDS011;57335;52.288;6.056;2022-11-18T10:32:54;12.27;;;5.03;;
69750;SDS011;57335;52.288;6.056;2022-11-18T10:38:01;11.55;;;5.07;;
69750;SDS011;57335;52.288;6.056;2022-11-18T10:40:34;10.77;;;5.30;;
69750;SDS011;57335;52.288;6.056;2022-11-18T10:43:03;13.27;;;5.28;;
69750;SDS011;57335;52.288;6.056;2022-11-18T10:45:30;13.43;;;5.07;;
69750;SDS011;57335;52.288;6.056;2022-11-18T10:50:35;12.27;;;4.90;;
69750;SDS011;57335;52.288;6.056;2022-11-18T10:53:04;11.57;;;5.03;;
69750;SDS011;57335;52.288;6.056;2022-11-18T10:55:43;13.50;;;5.13;;
69750;SDS011;57335;52.288;6.056;2022-11-18T10:58:23;12.55;;;5.43;;
69750;SDS011;57335;52.288;6.056;2022-11-18T11:00:50;11.98;;;5.22;;
69750;SDS011;57335;52.288;6.056;2022-11-18T11:14:21;14.52;;;5.50;;
69750;SDS011;57335;52.288;6.056;2022-11-18T11:19:44;11.35;;;5.32;;
69750;SDS011;57335;52.288;6.056;2022-11-18T11:22:31;10.60;;;5.35;;
69750;SDS011;57335;52.288;6.056;2022-11-18T11:24:58;12.18;;;4.72;;
69750;SDS011;57335;52.288;6.056;2022-11-18T11:30:23;9.95;;;4.43;;
69750;SDS011;57335;52.288;6.056;2022-11-18T11:35:50;11.88;;;5.05;;
69750;SDS011;57335;52.288;6.056;2022-11-18T11:38:23;11.38;;;4.45;;
69750;SDS011;57335;52.288;6.056;2022-11-18T11:41:19;11.15;;;4.70;;
69750;SDS011;57335;52.288;6.056;2022-11-18T11:43:52;10.85;;;4.93;;
69750;SDS011;57335;52.288;6.056;2022-11-18T11:46:27;10.27;;;4.65;;
69750;SDS011;57335;52.288;6.056;2022-11-18T11:49:06;11.18;;;4.90;;
69750;SDS011;57335;52.288;6.056;2022-11-18T11:51:39;13.30;;;4.72;;
69750;SDS011;57335;52.288;6.056;2022-11-18T11:57:02;11.98;;;4.97;;
69750;SDS011;57335;52.288;6.056;2022-11-18T12:07:51;12.27;;;5.43;;
69750;SDS011;57335;52.288;6.056;2022-11-18T12:10:28;9.52;;;4.80;;
69750;SDS011;57335;52.288;6.056;2022-11-18T12:18:23;10.32;;;5.35;;
69750;SDS011;57335;52.288;6.056;2022-11-18T12:20:58;14.63;;;5.03;;
69750;SDS011;57335;52.288;6.056;2022-11-18T12:23:25;7.78;;;3.55;;
69750;SDS011;57335;52.288;6.056;2022-11-18T12:25:54;15.10;;;5.70;;
69750;SDS011;57335;52.288;6.056;2022-11-18T12:28:43;11.23;;;5.82;;
69750;SDS011;57335;52.288;6.056;2022-11-18T12:41:57;11.93;;;5.30;;
69750;SDS011;57335;52.288;6.056;2022-11-18T12:44:25;14.43;;;5.65;;
69750;SDS011;57335;52.288;6.056;2022-11-18T12:47:07;11.63;;;5.50;;
69750;SDS011;57335;52.288;6.056;2022-11-18T12:52:02;12.32;;;6.00;;
69750;SDS011;57335;52.288;6.056;2022-11-18T12:54:31;12.30;;;5.60;;
69750;SDS011;57335;52.288;6.056;2022-11-18T12:57:14;15.07;;;5.90;;
69750;SDS011;57335;52.288;6.056;2022-11-18T12:59:45;12.65;;;5.35;;
69750;SDS011;57335;52.288;6.056;2022-11-18T13:05:01;12.23;;;5.30;;
69750;SDS011;57335;52.288;6.056;2022-11-18T13:07:34;14.00;;;6.18;;
69750;SDS011;57335;52.288;6.056;2022-11-18T13:10:22;13.70;;;5.15;;
69750;SDS011;57335;52.288;6.056;2022-11-18T13:12:53;13.32;;;5.65;;
69750;SDS011;57335;52.288;6.056;2022-11-18T13:15:20;12.57;;;5.22;;
69750;SDS011;57335;52.288;6.056;2022-11-18T13:17:47;11.88;;;5.57;;
69750;SDS011;57335;52.288;6.056;2022-11-18T13:22:53;14.82;;;5.85;;
69750;SDS011;57335;52.288;6.056;2022-11-18T13:25:24;10.88;;;5.63;;
69750;SDS011;57335;52.288;6.056;2022-11-18T13:28:08;12.35;;;5.85;;
69750;SDS011;57335;52.288;6.056;2022-11-18T13:33:51;17.13;;;6.15;;
69750;SDS011;57335;52.288;6.056;2022-11-18T13:36:19;12.77;;;5.53;;
69750;SDS011;57335;52.288;6.056;2022-11-18T13:38:54;13.45;;;5.88;;
69750;SDS011;57335;52.288;6.056;2022-11-18T13:41:25;12.82;;;6.25;;
69750;SDS011;57335;52.288;6.056;2022-11-18T13:43:53;13.68;;;6.10;;
69750;SDS011;57335;52.288;6.056;2022-11-18T13:46:19;10.80;;;5.95;;
69750;SDS011;57335;52.288;6.056;2022-11-18T13:48:49;16.30;;;5.95;;
69750;SDS011;57335;52.288;6.056;2022-11-18T13:51:21;13.50;;;5.78;;
69750;SDS011;57335;52.288;6.056;2022-11-18T13:53:48;12.38;;;5.90;;
69750;SDS011;57335;52.288;6.056;2022-11-18T13:56:22;12.88;;;5.95;;
69750;SDS011;57335;52.288;6.056;2022-11-18T13:58:59;12.20;;;6.85;;
69750;SDS011;57335;52.288;6.056;2022-11-18T14:01:44;14.80;;;6.07;;
69750;SDS011;57335;52.288;6.056;2022-11-18T14:04:18;12.73;;;6.53;;
69750;SDS011;57335;52.288;6.056;2022-11-18T14:06:47;13.98;;;6.25;;
69750;SDS011;57335;52.288;6.056;2022-11-18T14:09:26;14.95;;;6.68;;
69750;SDS011;57335;52.288;6.056;2022-11-18T14:11:59;18.27;;;6.68;;
69750;SDS011;57335;52.288;6.056;2022-11-18T14:14:27;13.43;;;5.78;;
69750;SDS011;57335;52.288;6.056;2022-11-18T14:19:42;13.02;;;5.72;;
69750;SDS011;57335;52.288;6.056;2022-11-18T14:22:14;14.73;;;6.05;;
69750;SDS011;57335;52.288;6.056;2022-11-18T14:24:43;14.02;;;6.30;;
69750;SDS011;57335;52.288;6.056;2022-11-18T14:33:16;13.20;;;5.88;;
69750;SDS011;57335;52.288;6.056;2022-11-18T14:36:00;13.10;;;5.13;;
69750;SDS011;57335;52.288;6.056;2022-11-18T14:41:21;11.68;;;4.78;;
69750;SDS011;57335;52.288;6.056;2022-11-18T14:43:48;12.55;;;5.57;;
69750;SDS011;57335;52.288;6.056;2022-11-18T14:46:15;17.98;;;5.82;;
69750;SDS011;57335;52.288;6.056;2022-11-18T14:48:43;14.40;;;5.30;;
69750;SDS011;57335;52.288;6.056;2022-11-18T14:51:11;14.55;;;5.03;;
69750;SDS011;57335;52.288;6.056;2022-11-18T14:53:39;11.90;;;4.82;;
69750;SDS011;57335;52.288;6.056;2022-11-18T14:56:10;13.45;;;5.20;;
69750;SDS011;57335;52.288;6.056;2022-11-18T14:58:41;10.55;;;4.82;;
69750;SDS011;57335;52.288;6.056;2022-11-18T15:01:08;12.38;;;5.30;;
69750;SDS011;57335;52.288;6.056;2022-11-18T15:03:36;17.95;;;7.05;;
69750;SDS011;57335;52.288;6.056;2022-11-18T15:06:05;18.83;;;6.93;;
69750;SDS011;57335;52.288;6.056;2022-11-18T15:08:37;19.23;;;7.13;;
69750;SDS011;57335;52.288;6.056;2022-11-18T15:11:03;18.58;;;7.28;;
69750;SDS011;57335;52.288;6.056;2022-11-18T15:13:30;20.08;;;7.72;;
69750;SDS011;57335;52.288;6.056;2022-11-18T15:15:56;22.05;;;8.48;;
69750;SDS011;57335;52.288;6.056;2022-11-18T15:18:22;21.85;;;8.27;;
69750;SDS011;57335;52.288;6.056;2022-11-18T15:20:49;19.08;;;7.30;;
69750;SDS011;57335;52.288;6.056;2022-11-18T15:23:16;20.20;;;7.72;;
69750;SDS011;57335;52.288;6.056;2022-11-18T15:25:43;18.50;;;7.80;;
69750;SDS011;57335;52.288;6.056;2022-11-18T15:28:09;20.60;;;7.93;;
69750;SDS011;57335;52.288;6.056;2022-11-18T15:30:35;15.88;;;6.07;;
69750;SDS011;57335;52.288;6.056;2022-11-18T15:33:02;22.10;;;8.25;;
69750;SDS011;57335;52.288;6.056;2022-11-18T15:35:28;23.83;;;10.20;;
69750;SDS011;57335;52.288;6.056;2022-11-18T15:37:54;17.58;;;6.63;;
69750;SDS011;57335;52.288;6.056;2022-11-18T15:40:21;20.60;;;8.13;;
69750;SDS011;57335;52.288;6.056;2022-11-18T15:42:47;16.50;;;5.85;;
69750;SDS011;57335;52.288;6.056;2022-11-18T15:45:17;17.83;;;6.28;;
69750;SDS011;57335;52.288;6.056;2022-11-18T15:47:43;19.00;;;8.02;;
69750;SDS011;57335;52.288;6.056;2022-11-18T15:50:10;22.67;;;8.90;;
69750;SDS011;57335;52.288;6.056;2022-11-18T15:52:36;15.80;;;5.97;;
69750;SDS011;57335;52.288;6.056;2022-11-18T15:55:02;25.90;;;8.27;;
69750;SDS011;57335;52.288;6.056;2022-11-18T15:57:33;12.13;;;4.60;;
69750;SDS011;57335;52.288;6.056;2022-11-18T15:59:59;26.38;;;8.52;;
69750;SDS011;57335;52.288;6.056;2022-11-18T16:02:26;25.90;;;9.18;;
69750;SDS011;57335;52.288;6.056;2022-11-18T16:04:52;27.35;;;9.30;;
69750;SDS011;57335;52.288;6.056;2022-11-18T16:07:18;23.73;;;8.25;;
69750;SDS011;57335;52.288;6.056;2022-11-18T16:09:45;16.55;;;7.13;;
69750;SDS011;57335;52.288;6.056;2022-11-18T16:12:11;23.38;;;8.18;;
69750;SDS011;57335;52.288;6.056;2022-11-18T16:14:37;22.20;;;8.25;;
69750;SDS011;57335;52.288;6.056;2022-11-18T16:17:04;21.52;;;7.25;;
69750;SDS011;57335;52.288;6.056;2022-11-18T16:19:30;18.85;;;7.93;;
69750;SDS011;57335;52.288;6.056;2022-11-18T16:21:57;18.80;;;6.53;;
69750;SDS011;57335;52.288;6.056;2022-11-18T16:24:24;20.50;;;6.78;;
69750;SDS011;57335;52.288;6.056;2022-11-18T16:26:52;20.60;;;7.57;;
69750;SDS011;57335;52.288;6.056;2022-11-18T16:29:19;19.92;;;6.68;;
69750;SDS011;57335;52.288;6.056;2022-11-18T16:31:46;25.00;;;9.32;;
69750;SDS011;57335;52.288;6.056;2022-11-18T16:34:24;19.58;;;7.13;;
69750;SDS011;57335;52.288;6.056;2022-11-18T16:36:53;29.60;;;9.07;;
69750;SDS011;57335;52.288;6.056;2022-11-18T16:39:21;19.00;;;7.00;;
69750;SDS011;57335;52.288;6.056;2022-11-18T16:41:49;20.80;;;6.88;;
69750;SDS011;57335;52.288;6.056;2022-11-18T16:44:17;27.08;;;8.32;;
69750;SDS011;57335;52.288;6.056;2022-11-18T16:46:46;17.70;;;5.50;;
69750;SDS011;57335;52.288;6.056;2022-11-18T16:49:15;15.00;;;5.30;;
69750;SDS011;57335;52.288;6.056;2022-11-18T16:51:44;15.93;;;6.13;;
69750;SDS011;57335;52.288;6.056;2022-11-18T16:54:16;14.48;;;5.72;;
69750;SDS011;57335;52.288;6.056;2022-11-18T16:56:44;15.88;;;5.80;;
69750;SDS011;57335;52.288;6.056;2022-11-18T16:59:13;15.18;;;6.05;;
69750;SDS011;57335;52.288;6.056;2022-11-18T17:04:11;24.77;;;6.88;;